Time;durP1;ratioP1;P1;durP2;ratioP2;P2;SDS_P1;SDS_P2;PMS_P1;PMS_P2;Temp;Humidity;BMP_temperature;BMP_pressure;BME280_temperature;BME280_humidity;BME280_pressure;Samples;Min_cycle;Max_cycle;Signal;HPM_P1;HPM_P2
2022/08/08 00:00:21;;;;;;;2.10;1.90;;;24.20;46.70;25.30;101500.00;;;;5028341;28;20167;-44
2022/08/08 00:03:24;;;;;;;2.10;2.00;;;24.10;46.80;25.30;101513.00;;;;5011819;28;20180;-44
2022/08/08 00:05:59;;;;;;;2.30;2.10;;;24.10;46.90;25.30;101508.00;;;;5028502;28;20183;-45
2022/08/08 00:08:45;;;;;;;2.28;1.90;;;24.10;46.90;25.20;101511.00;;;;5028059;28;20177;-45
2022/08/08 00:11:22;;;;;;;2.40;2.00;;;24.10;46.90;25.20;101481.00;;;;5042613;28;20554;-44
2022/08/08 00:14:13;;;;;;;1.97;1.77;;;24.10;47.00;25.20;101505.00;;;;5028675;28;20262;-43
2022/08/08 00:16:42;;;;;;;4.17;2.10;;;24.10;47.00;25.20;101499.00;;;;5028100;28;20253;-43
2022/08/08 00:19:49;;;;;;;2.03;1.70;;;24.10;47.00;25.20;101505.00;;;;5027678;28;20262;-43
2022/08/08 00:22:26;;;;;;;2.37;1.90;;;24.10;47.10;25.10;101503.00;;;;5028254;28;20661;-43
2022/08/08 00:24:56;;;;;;;1.97;1.87;;;24.00;47.20;25.10;101495.00;;;;5028330;28;20186;-45
2022/08/08 00:27:22;;;;;;;3.10;1.90;;;24.10;47.20;25.10;101497.00;;;;5044192;28;20258;-45
2022/08/08 00:29:58;;;;;;;2.07;1.83;;;24.00;47.20;24.90;101488.00;;;;5011449;28;20645;-44
2022/08/08 00:32:56;;;;;;;2.00;1.80;;;24.00;47.30;25.10;101490.00;;;;5029046;28;20163;-44
2022/08/08 00:35:57;;;;;;;2.22;1.73;;;24.00;47.30;25.00;101490.00;;;;5012200;28;20195;-44
2022/08/08 00:39:01;;;;;;;1.83;1.73;;;24.00;47.30;25.00;101495.00;;;;5027542;28;20712;-44
2022/08/08 00:42:03;;;;;;;2.10;1.90;;;24.00;47.30;25.00;101495.00;;;;5013076;28;20186;-45
2022/08/08 00:45:01;;;;;;;1.80;1.70;;;23.90;47.40;24.90;101489.00;;;;5028516;28;20182;-44
2022/08/08 00:48:04;;;;;;;2.07;1.83;;;23.90;47.50;24.90;101494.00;;;;5028147;28;20725;-44
2022/08/08 00:51:26;;;;;;;2.30;1.93;;;23.90;47.50;24.90;101490.00;;;;5027619;28;20581;-44
2022/08/08 00:54:24;;;;;;;3.50;2.00;;;23.80;47.40;24.80;101492.00;;;;5027504;28;20169;-44
2022/08/08 00:57:16;;;;;;;3.20;2.00;;;23.80;47.50;24.80;101494.00;;;;5027332;28;20194;-45
2022/08/08 01:00:23;;;;;;;2.83;1.93;;;23.80;47.70;24.80;101484.00;;;;5044168;28;20618;-44
2022/08/08 01:03:45;;;;;;;2.17;2.00;;;23.80;47.80;24.70;101489.00;;;;5025088;28;20190;-44
2022/08/08 01:06:43;;;;;;;2.50;2.20;;;23.80;47.90;24.70;101485.00;;;;4985621;28;20232;-43
2022/08/08 01:10:19;;;;;;;2.23;2.00;;;23.70;47.80;24.70;101488.00;;;;4985689;28;20714;-44
2022/08/08 01:13:30;;;;;;;3.10;1.90;;;23.70;48.00;24.60;101494.00;;;;5021556;28;20325;-43
2022/08/08 01:16:01;;;;;;;2.20;2.00;;;23.60;47.90;24.60;101487.00;;;;5026805;28;20230;-44
2022/08/08 01:18:56;;;;;;;2.10;1.90;;;23.60;48.10;24.60;101488.00;;;;5026469;28;20250;-44
2022/08/08 01:22:19;;;;;;;3.63;2.20;;;23.60;48.10;24.60;101488.00;;;;5026668;28;20186;-45
2022/08/08 01:25:24;;;;;;;3.53;2.20;;;23.60;48.00;24.50;101491.00;;;;4974398;28;20738;-44
2022/08/08 01:28:05;;;;;;;3.63;2.10;;;23.60;47.90;24.50;101488.00;;;;5026799;28;20170;-45
2022/08/08 01:31:03;;;;;;;2.83;2.13;;;23.60;48.00;24.50;101497.00;;;;5026454;28;20265;-44
2022/08/08 01:34:03;;;;;;;2.30;2.10;;;23.50;48.00;24.50;101498.00;;;;5026626;28;20159;-44
2022/08/08 01:36:57;;;;;;;2.33;2.13;;;23.50;48.00;24.40;101497.00;;;;5042910;28;20199;-44
2022/08/08 01:39:37;;;;;;;2.10;1.90;;;23.50;48.30;24.40;101502.00;;;;5027644;28;20197;-44
2022/08/08 01:42:18;;;;;;;2.30;2.10;;;23.40;48.20;24.40;101498.00;;;;5027837;28;20171;-44
2022/08/08 01:45:07;;;;;;;2.63;2.13;;;23.40;48.20;24.40;101495.00;;;;5027413;28;20797;-45
2022/08/08 01:47:58;;;;;;;2.20;2.00;;;23.40;48.40;24.40;101491.00;;;;5027431;28;20854;-44
2022/08/08 01:50:52;;;;;;;2.50;2.10;;;23.40;48.60;24.30;101491.00;;;;5026301;28;20194;-44
2022/08/08 01:53:44;;;;;;;2.83;2.30;;;23.40;48.60;24.30;101487.00;;;;5026504;28;20165;-43
2022/08/08 01:56:50;;;;;;;2.53;2.30;;;23.30;48.40;24.30;101493.00;;;;5042955;28;20202;-43
2022/08/08 01:59:37;;;;;;;3.00;2.60;;;23.30;48.20;24.20;101485.00;;;;5026593;28;20246;-46
2022/08/08 02:02:21;;;;;;;3.47;2.40;;;23.20;47.50;24.20;101493.00;;;;5026109;28;20249;-45
2022/08/08 02:05:20;;;;;;;2.60;2.40;;;23.20;47.80;24.20;101491.00;;;;5029396;28;20202;-44
2022/08/08 02:07:52;;;;;;;2.50;2.30;;;23.10;48.20;24.10;101495.00;;;;5032579;28;20641;-44
2022/08/08 02:10:59;;;;;;;2.43;2.23;;;23.20;48.20;24.10;101494.00;;;;5027545;28;20198;-45
2022/08/08 02:14:03;;;;;;;2.50;2.30;;;23.20;48.20;24.10;101493.00;;;;4985075;28;20207;-44
2022/08/08 02:17:16;;;;;;;2.40;2.20;;;23.20;48.40;24.10;101495.00;;;;5027240;28;20269;-45
2022/08/08 02:19:59;;;;;;;2.50;2.30;;;23.10;48.40;24.00;101491.00;;;;5029354;28;20228;-44
2022/08/08 02:22:40;;;;;;;2.50;2.30;;;23.10;48.50;24.00;101496.00;;;;5034614;28;20455;-45
2022/08/08 02:25:23;;;;;;;2.50;2.27;;;23.10;48.50;24.00;101503.00;;;;5042844;28;20163;-44
2022/08/08 02:28:05;;;;;;;2.70;2.30;;;23.00;48.40;24.00;101504.00;;;;5026022;28;20163;-45
2022/08/08 02:30:37;;;;;;;2.50;2.10;;;23.00;48.50;24.00;101497.00;;;;5025980;28;20244;-45
2022/08/08 02:33:39;;;;;;;2.50;2.30;;;23.00;48.50;24.00;101503.00;;;;5042985;28;20549;-43
2022/08/08 02:36:55;;;;;;;2.40;2.20;;;23.00;48.50;24.00;101499.00;;;;5030302;28;20198;-45
2022/08/08 02:40:13;;;;;;;2.70;2.33;;;23.00;48.60;23.90;101498.00;;;;5030897;28;20155;-45
2022/08/08 02:42:44;;;;;;;2.50;2.20;;;23.00;48.70;23.90;101497.00;;;;5031002;28;20182;-45
2022/08/08 02:45:36;;;;;;;2.60;2.30;;;23.00;48.80;23.90;101492.00;;;;5030675;28;20190;-43
2022/08/08 02:48:34;;;;;;;3.80;2.20;;;22.90;48.80;23.80;101495.00;;;;5029581;28;20174;-43
2022/08/08 02:51:28;;;;;;;2.97;2.50;;;22.90;48.90;23.80;101500.00;;;;5045883;28;20187;-45
2022/08/08 02:54:14;;;;;;;2.40;2.20;;;22.90;48.80;23.80;101500.00;;;;5031142;28;20182;-44
2022/08/08 02:57:37;;;;;;;2.47;2.27;;;22.90;48.80;23.80;101499.00;;;;5035652;28;20198;-44
2022/08/08 03:00:34;;;;;;;2.50;2.30;;;22.90;48.80;23.70;101499.00;;;;5031300;28;20160;-44
2022/08/08 03:03:27;;;;;;;2.60;2.40;;;22.80;48.80;23.70;101495.00;;;;5029531;28;20630;-44
2022/08/08 03:06:11;;;;;;;2.80;2.60;;;22.80;48.80;23.70;101496.00;;;;5030818;28;20204;-44
2022/08/08 03:09:21;;;;;;;3.53;2.70;;;22.80;48.70;23.70;101494.00;;;;5030429;28;20213;-44
2022/08/08 03:12:29;;;;;;;2.60;2.40;;;22.70;48.70;23.60;101500.00;;;;5030215;28;20687;-44
2022/08/08 03:15:29;;;;;;;2.70;2.50;;;22.70;48.80;23.60;101502.00;;;;5029597;28;20164;-44
2022/08/08 03:18:14;;;;;;;2.90;2.60;;;22.70;48.90;23.60;101505.00;;;;5045601;28;20167;-44
2022/08/08 03:20:49;;;;;;;2.40;2.20;;;22.60;48.80;23.60;101499.00;;;;5045812;28;20182;-44
2022/08/08 03:23:16;;;;;;;2.63;2.43;;;22.60;48.80;23.50;101500.00;;;;5030415;28;20234;-48
2022/08/08 03:25:43;;;;;;;2.60;2.40;;;22.70;48.90;23.50;101496.00;;;;5034164;28;20195;-43
2022/08/08 03:28:19;;;;;;;2.60;2.40;;;22.60;48.90;23.50;101501.00;;;;5019121;28;20661;-43
2022/08/08 03:30:45;;;;;;;3.00;2.70;;;22.60;48.90;23.50;101502.00;;;;5009916;28;20278;-43
2022/08/08 03:33:17;;;;;;;2.57;2.37;;;22.60;49.10;23.50;101505.00;;;;5009099;28;20167;-44
2022/08/08 03:35:48;;;;;;;8.87;2.70;;;22.60;49.10;23.50;101500.00;;;;5009182;28;20188;-44
2022/08/08 03:38:13;;;;;;;6.30;2.40;;;22.60;49.20;23.50;101511.00;;;;5010043;28;20153;-43
2022/08/08 03:40:39;;;;;;;2.93;2.40;;;22.50;49.10;23.50;101515.00;;;;5010060;28;20172;-43
2022/08/08 03:43:09;;;;;;;4.07;2.87;;;22.50;49.10;23.50;101512.00;;;;5015908;28;20175;-43
2022/08/08 03:45:35;;;;;;;22.93;6.50;;;22.60;49.20;23.40;101509.00;;;;5020557;28;20265;-43
2022/08/08 03:48:06;;;;;;;4.30;3.90;;;22.50;49.10;23.40;101511.00;;;;5021317;28;20176;-45
2022/08/08 03:50:33;;;;;;;3.70;3.03;;;22.50;49.20;23.40;101513.00;;;;5009006;28;20192;-43
2022/08/08 03:53:12;;;;;;;5.27;2.90;;;22.50;49.20;23.40;101510.00;;;;5009573;28;20214;-44
2022/08/08 03:55:39;;;;;;;2.90;2.60;;;22.40;49.20;23.40;101522.00;;;;5009063;28;20242;-43
2022/08/08 03:58:05;;;;;;;3.00;2.70;;;22.40;49.20;23.30;101527.00;;;;5009599;28;20179;-44
2022/08/08 04:00:31;;;;;;;2.90;2.67;;;22.40;49.20;23.30;101531.00;;;;5009255;28;20190;-43
2022/08/08 04:03:05;;;;;;;2.90;2.63;;;22.40;49.50;23.30;101534.00;;;;5009572;28;20194;-43
2022/08/08 04:05:36;;;;;;;2.70;2.50;;;22.30;49.40;23.30;101542.00;;;;5009587;28;20282;-44
2022/08/08 04:08:05;;;;;;;2.60;2.40;;;22.30;49.40;23.30;101538.00;;;;5009332;28;20553;-44
2022/08/08 04:10:32;;;;;;;2.97;2.67;;;22.30;49.40;23.20;101540.00;;;;5008264;28;20204;-45
2022/08/08 04:13:00;;;;;;;2.70;2.50;;;22.30;49.40;23.20;101533.00;;;;5009516;28;20250;-44
2022/08/08 04:15:25;;;;;;;2.60;2.40;;;22.30;49.30;23.20;101546.00;;;;5007370;28;20557;-44
2022/08/08 04:17:51;;;;;;;2.73;2.53;;;22.30;49.50;23.20;101543.00;;;;5007754;28;20262;-44
2022/08/08 04:20:17;;;;;;;2.60;2.40;;;22.20;49.50;23.20;101541.00;;;;5009258;28;20172;-44
2022/08/08 04:22:43;;;;;;;2.53;2.33;;;22.20;49.40;23.10;101543.00;;;;5008732;28;20243;-45
2022/08/08 04:25:09;;;;;;;2.80;2.53;;;22.20;49.50;23.10;101537.00;;;;5008667;28;20175;-44
2022/08/08 04:27:35;;;;;;;3.33;2.73;;;22.10;49.50;23.10;101529.00;;;;5008335;28;20179;-44
2022/08/08 04:30:03;;;;;;;3.10;2.80;;;22.10;49.50;23.10;101543.00;;;;5011279;28;20262;-44
2022/08/08 04:32:28;;;;;;;3.00;2.70;;;22.10;49.50;23.10;101553.00;;;;5009226;28;20243;-44
2022/08/08 04:34:54;;;;;;;3.00;2.70;;;22.10;49.60;23.00;101552.00;;;;5008965;28;20776;-45
2022/08/08 04:37:20;;;;;;;3.20;2.90;;;22.10;49.70;23.00;101547.00;;;;5015639;28;20623;-44
2022/08/08 04:39:46;;;;;;;3.37;2.67;;;22.00;49.60;23.00;101546.00;;;;5028924;28;20812;-44
2022/08/08 04:42:11;;;;;;;3.00;2.70;;;22.10;49.60;23.00;101552.00;;;;5028436;28;20180;-44
2022/08/08 04:44:37;;;;;;;3.53;2.83;;;22.00;49.50;23.00;101546.00;;;;5043950;28;20182;-45
2022/08/08 04:47:03;;;;;;;3.20;2.70;;;22.10;49.70;22.90;101543.00;;;;5027070;28;20195;-45
2022/08/08 04:49:29;;;;;;;3.10;2.70;;;22.00;49.80;22.90;101554.00;;;;5027103;28;20187;-44
2022/08/08 04:51:55;;;;;;;2.77;2.57;;;22.00;50.00;22.90;101558.00;;;;5024111;28;20183;-45
2022/08/08 04:54:20;;;;;;;2.97;2.70;;;21.90;49.70;22.90;101562.00;;;;5040698;28;20847;-44
2022/08/08 04:56:46;;;;;;;4.10;2.93;;;21.90;49.70;22.90;101559.00;;;;5028186;28;20808;-44
2022/08/08 04:59:12;;;;;;;2.77;2.50;;;21.90;49.70;22.90;101567.00;;;;5027427;28;20249;-44
2022/08/08 05:01:38;;;;;;;2.70;2.50;;;21.90;49.60;22.80;101564.00;;;;5028525;28;20167;-44
2022/08/08 05:04:03;;;;;;;2.83;2.47;;;21.90;49.80;22.90;101567.00;;;;5028477;28;20171;-44
2022/08/08 05:06:29;;;;;;;3.60;2.70;;;22.00;49.30;22.90;101567.00;;;;4969540;28;20199;-45
2022/08/08 05:08:55;;;;;;;4.90;2.40;;;22.00;49.30;22.80;101571.00;;;;5008992;28;20610;-45
2022/08/08 05:11:21;;;;;;;4.33;2.60;;;22.00;49.30;22.80;101574.00;;;;5009136;28;20201;-44
2022/08/08 05:13:47;;;;;;;3.03;2.70;;;22.00;49.30;22.80;101564.00;;;;5024518;28;20170;-44
2022/08/08 05:16:12;;;;;;;8.50;3.50;;;22.00;49.30;22.80;101576.00;;;;5008124;28;20245;-44
2022/08/08 05:18:38;;;;;;;9.40;3.43;;;22.00;49.30;22.80;101575.00;;;;5008052;28;20175;-44
2022/08/08 05:21:09;;;;;;;5.90;3.10;;;22.00;49.40;22.80;101571.00;;;;5007852;28;20232;-44
2022/08/08 05:23:35;;;;;;;8.17;3.03;;;22.00;49.70;22.80;101568.00;;;;5007967;28;20196;-45
2022/08/08 05:26:01;;;;;;;4.20;3.10;;;22.00;49.90;22.80;101562.00;;;;5007935;28;20197;-47
2022/08/08 05:28:27;;;;;;;6.53;3.00;;;22.00;49.70;22.80;101563.00;;;;5009673;28;20638;-43
2022/08/08 05:30:53;;;;;;;4.07;2.80;;;22.00;49.60;22.80;101560.00;;;;5018741;28;20290;-43
2022/08/08 05:33:18;;;;;;;3.47;2.80;;;22.00;49.70;22.80;101549.00;;;;5007923;28;20200;-44
2022/08/08 05:35:45;;;;;;;7.27;2.70;;;22.00;49.70;22.80;101560.00;;;;5006760;28;20287;-43
2022/08/08 05:38:16;;;;;;;6.10;3.00;;;22.00;49.80;22.80;101564.00;;;;5006272;28;20250;-43
2022/08/08 05:40:48;;;;;;;3.93;3.00;;;22.00;49.80;22.80;101568.00;;;;5008073;28;20179;-45
2022/08/08 05:43:30;;;;;;;3.90;2.97;;;22.00;50.10;22.80;101569.00;;;;5007910;28;20221;-44
2022/08/08 05:45:58;;;;;;;3.67;2.90;;;21.90;50.10;22.70;101571.00;;;;5007379;28;20214;-44
2022/08/08 05:48:24;;;;;;;4.23;2.80;;;22.00;50.00;22.70;101574.00;;;;5007310;28;20187;-43
2022/08/08 05:50:50;;;;;;;2.90;2.67;;;22.00;49.90;22.70;101572.00;;;;5006073;28;20211;-43
2022/08/08 05:53:24;;;;;;;2.97;2.70;;;22.00;49.90;22.70;101579.00;;;;5007524;28;20176;-43
2022/08/08 05:55:56;;;;;;;2.83;2.63;;;21.90;49.80;22.70;101580.00;;;;5007882;28;20191;-44
2022/08/08 05:58:27;;;;;;;3.10;2.77;;;22.00;50.00;22.70;101589.00;;;;5007305;28;20249;-44
2022/08/08 06:00:58;;;;;;;3.50;2.90;;;22.00;50.00;22.70;101583.00;;;;5006390;28;20207;-44
2022/08/08 06:03:25;;;;;;;2.90;2.70;;;21.90;49.90;22.60;101577.00;;;;5022591;28;20184;-44
2022/08/08 06:06:05;;;;;;;3.23;2.80;;;22.00;50.00;22.60;101578.00;;;;5007716;28;20349;-44
2022/08/08 06:08:35;;;;;;;4.00;2.97;;;21.90;50.10;22.60;101576.00;;;;4972650;28;20164;-43
2022/08/08 06:11:01;;;;;;;3.60;3.30;;;21.90;50.10;22.60;101586.00;;;;5007321;28;20199;-44
2022/08/08 06:13:30;;;;;;;3.97;3.30;;;21.90;50.10;22.60;101584.00;;;;5007542;28;20290;-43
2022/08/08 06:15:56;;;;;;;4.17;3.40;;;21.90;50.30;22.60;101587.00;;;;5007270;28;20195;-43
2022/08/08 06:18:25;;;;;;;3.30;3.00;;;21.90;50.30;22.60;101581.00;;;;5007024;28;20366;-43
2022/08/08 06:20:59;;;;;;;4.03;3.30;;;21.90;50.30;22.60;101591.00;;;;5006996;28;20183;-43
2022/08/08 06:23:28;;;;;;;3.20;2.90;;;21.90;50.30;22.50;101587.00;;;;5006720;28;20622;-43
2022/08/08 06:26:04;;;;;;;4.47;3.30;;;21.90;50.40;22.50;101588.00;;;;5007016;28;20278;-45
2022/08/08 06:28:52;;;;;;;5.30;3.00;;;21.80;50.60;22.50;101592.00;;;;5017594;28;20254;-42
2022/08/08 06:31:21;;;;;;;3.53;3.10;;;21.80;50.60;22.50;101599.00;;;;5004664;28;20222;-43
2022/08/08 06:34:07;;;;;;;4.33;3.20;;;21.80;50.80;22.60;101597.00;;;;5024062;28;20159;-42
2022/08/08 06:36:39;;;;;;;4.03;3.30;;;21.80;50.90;22.50;101603.00;;;;5025433;28;20201;-44
2022/08/08 06:39:08;;;;;;;3.40;3.10;;;21.80;51.00;22.50;101601.00;;;;5026607;28;20179;-44
2022/08/08 06:41:48;;;;;;;2.93;2.73;;;21.80;51.00;22.50;101603.00;;;;5025634;28;20198;-44
2022/08/08 06:44:15;;;;;;;3.30;3.00;;;21.80;51.10;22.50;101597.00;;;;5025330;28;20193;-44
2022/08/08 06:46:40;;;;;;;3.77;3.07;;;21.80;51.20;22.50;101599.00;;;;5025221;28;20207;-42
2022/08/08 06:49:06;;;;;;;3.40;3.10;;;21.80;51.40;22.50;101603.00;;;;5025073;28;20257;-43
2022/08/08 06:51:32;;;;;;;3.47;3.17;;;21.80;51.50;22.50;101601.00;;;;5024583;28;20179;-44
2022/08/08 06:53:58;;;;;;;3.23;2.93;;;21.70;51.20;22.40;101586.00;;;;5025350;28;20186;-42
2022/08/08 06:56:23;;;;;;;3.40;3.10;;;21.80;51.40;22.40;101598.00;;;;5025035;28;20209;-43
2022/08/08 06:58:49;;;;;;;3.27;2.97;;;21.80;51.40;22.30;101608.00;;;;5025095;28;20155;-42
2022/08/08 07:01:15;;;;;;;3.67;3.07;;;21.80;51.30;22.30;101613.00;;;;5010953;28;20191;-43
2022/08/08 07:03:53;;;;;;;3.13;2.80;;;21.70;51.60;22.30;101612.00;;;;5005741;28;20183;-43
2022/08/08 07:06:22;;;;;;;3.03;2.83;;;21.80;51.60;22.30;101615.00;;;;4961754;28;20685;-43
2022/08/08 07:08:57;;;;;;;3.33;3.00;;;21.80;51.60;22.30;101603.00;;;;5005794;28;20191;-43
2022/08/08 07:11:28;;;;;;;3.50;3.20;;;21.70;51.60;22.30;101613.00;;;;5026006;28;20187;-43
2022/08/08 07:13:59;;;;;;;2.80;2.60;;;21.70;51.60;22.30;101613.00;;;;5025363;28;20321;-44
2022/08/08 07:17:01;;;;;;;3.37;2.90;;;21.70;51.70;22.20;101613.00;;;;5025231;28;20194;-43
2022/08/08 07:19:34;;;;;;;3.77;3.20;;;21.70;51.60;22.20;101621.00;;;;5026316;28;20624;-43
2022/08/08 07:22:06;;;;;;;3.20;2.90;;;21.60;52.20;22.20;101622.00;;;;5015863;28;20307;-43
2022/08/08 07:24:43;;;;;;;3.50;3.20;;;21.60;52.20;22.20;101624.00;;;;5011430;28;20528;-43
2022/08/08 07:27:11;;;;;;;3.50;3.03;;;21.50;52.30;22.20;101634.00;;;;5025549;28;20280;-43
2022/08/08 07:29:37;;;;;;;4.10;3.17;;;21.50;52.10;22.20;101636.00;;;;5011818;28;20202;-43
2022/08/08 07:32:05;;;;;;;4.47;3.30;;;21.60;52.50;22.20;101638.00;;;;5018206;28;20271;-43
2022/08/08 07:34:30;;;;;;;4.20;3.17;;;21.60;52.80;22.20;101627.00;;;;5021605;28;20167;-43
2022/08/08 07:36:56;;;;;;;4.70;3.53;;;21.60;52.60;22.20;101630.00;;;;5012536;28;20870;-45
2022/08/08 07:39:22;;;;;;;4.33;3.60;;;21.60;52.60;22.20;101635.00;;;;5011475;28;20167;-44
2022/08/08 07:41:49;;;;;;;4.83;3.50;;;21.70;53.20;22.20;101648.00;;;;5011829;28;20167;-44
2022/08/08 07:44:14;;;;;;;3.80;3.40;;;21.60;52.90;22.20;101644.00;;;;5016609;28;20179;-45
2022/08/08 07:46:40;;;;;;;3.60;3.30;;;21.70;53.20;22.20;101642.00;;;;5010307;28;20273;-44
2022/08/08 07:49:06;;;;;;;4.23;3.70;;;21.70;52.80;22.20;101637.00;;;;5010408;28;20257;-44
2022/08/08 07:51:32;;;;;;;5.70;3.80;;;21.70;52.80;22.20;101638.00;;;;5009825;28;20806;-43
2022/08/08 07:54:27;;;;;;;5.83;3.70;;;21.70;53.10;22.00;101641.00;;;;5009856;28;20233;-44
2022/08/08 07:57:11;;;;;;;5.43;3.47;;;21.70;53.10;22.30;101636.00;;;;5009858;28;20559;-44
2022/08/08 08:00:05;;;;;;;4.23;3.60;;;21.80;52.80;22.20;101635.00;;;;5012629;28;20182;-44
2022/08/08 08:02:46;;;;;;;18.43;5.10;;;21.80;52.90;22.20;101641.00;;;;5030776;28;20186;-44
2022/08/08 08:05:19;;;;;;;20.33;5.40;;;21.80;52.50;22.20;101641.00;;;;5022543;28;20175;-44
2022/08/08 08:07:48;;;;;;;7.07;4.07;;;21.80;52.30;22.20;101638.00;;;;4962815;28;20604;-44
2022/08/08 08:10:14;;;;;;;8.97;4.40;;;21.80;51.90;22.30;101640.00;;;;5019502;28;20187;-44
2022/08/08 08:12:42;;;;;;;8.30;3.77;;;21.80;51.90;22.30;101637.00;;;;5034831;28;20178;-44
2022/08/08 08:15:08;;;;;;;7.27;3.97;;;21.80;51.90;22.30;101637.00;;;;5018430;28;20189;-44
2022/08/08 08:17:41;;;;;;;14.80;4.97;;;21.90;51.80;22.30;101636.00;;;;5021017;28;20530;-44
2022/08/08 08:20:07;;;;;;;16.97;5.07;;;21.90;51.80;22.40;101638.00;;;;5019259;28;20730;-43
2022/08/08 08:22:34;;;;;;;10.83;4.20;;;21.90;51.60;22.40;101639.00;;;;4999106;28;20187;-44
2022/08/08 08:25:00;;;;;;;9.10;3.40;;;22.00;51.00;22.40;101643.00;;;;5026613;28;20175;-43
2022/08/08 08:27:26;;;;;;;8.33;3.93;;;22.00;50.40;22.50;101645.00;;;;5029886;28;20560;-43
2022/08/08 08:29:51;;;;;;;4.83;3.67;;;22.00;50.90;22.50;101650.00;;;;5029788;28;20673;-43
2022/08/08 08:32:17;;;;;;;4.93;3.53;;;22.00;49.70;22.50;101646.00;;;;5029776;28;20225;-44
2022/08/08 08:34:43;;;;;;;3.80;3.40;;;22.00;49.80;22.50;101647.00;;;;5045652;28;20183;-44
2022/08/08 08:37:09;;;;;;;3.67;3.00;;;22.00;49.70;22.50;101639.00;;;;5044940;28;20310;-44
2022/08/08 08:39:38;;;;;;;4.73;3.20;;;22.00;49.60;22.50;101639.00;;;;5028732;28;20189;-44
2022/08/08 08:42:03;;;;;;;3.33;2.93;;;22.00;48.80;22.60;101637.00;;;;5029827;28;20664;-44
2022/08/08 08:44:29;;;;;;;3.17;2.87;;;22.10;49.20;22.60;101624.00;;;;5028898;28;20179;-44
2022/08/08 08:46:55;;;;;;;3.27;2.80;;;22.10;49.20;22.60;101622.00;;;;5028295;28;20256;-44
2022/08/08 08:49:21;;;;;;;3.30;2.87;;;22.10;49.00;22.60;101648.00;;;;5011887;28;20211;-44
2022/08/08 08:51:46;;;;;;;3.13;2.83;;;22.10;48.60;22.60;101644.00;;;;5029532;28;20181;-43
2022/08/08 08:54:12;;;;;;;2.93;2.67;;;22.20;49.20;22.70;101647.00;;;;5028814;28;20178;-45
2022/08/08 08:56:38;;;;;;;3.70;2.70;;;22.20;48.20;22.70;101642.00;;;;5028687;28;20197;-43
2022/08/08 08:59:04;;;;;;;2.73;2.50;;;22.10;46.40;22.70;101647.00;;;;5028417;28;20630;-44
2022/08/08 09:01:34;;;;;;;2.63;2.43;;;22.20;46.70;22.70;101645.00;;;;5012312;28;20309;-45
2022/08/08 09:04:13;;;;;;;2.87;2.53;;;22.20;47.80;22.70;101638.00;;;;5008501;28;20175;-43
2022/08/08 09:06:41;;;;;;;2.70;2.50;;;22.20;47.60;22.70;101641.00;;;;4947743;28;20206;-44
2022/08/08 09:09:16;;;;;;;3.13;2.40;;;22.30;48.10;22.80;101634.00;;;;5012985;28;20274;-43
2022/08/08 09:11:44;;;;;;;2.67;2.47;;;22.30;48.40;22.80;101645.00;;;;5025837;28;20183;-45
2022/08/08 09:14:10;;;;;;;3.47;2.43;;;22.30;47.60;22.80;101632.00;;;;5020840;28;20198;-43
2022/08/08 09:16:36;;;;;;;2.97;2.67;;;22.30;47.10;22.80;101623.00;;;;5031848;28;20195;-43
2022/08/08 09:19:02;;;;;;;4.37;2.60;;;22.30;48.30;22.90;101651.00;;;;5025415;28;20583;-43
2022/08/08 09:21:28;;;;;;;3.73;2.63;;;22.40;48.20;22.90;101648.00;;;;5027939;28;20186;-43
2022/08/08 09:23:54;;;;;;;4.50;2.80;;;22.40;48.70;22.90;101650.00;;;;5016888;28;20237;-43
2022/08/08 09:27:01;;;;;;;5.23;2.60;;;22.40;48.00;22.90;101639.00;;;;5011220;28;20203;-43
2022/08/08 09:29:27;;;;;;;4.17;3.07;;;22.40;47.80;23.00;101647.00;;;;5026187;28;20807;-43
2022/08/08 09:32:05;;;;;;;4.00;2.60;;;22.50;48.30;23.00;101642.00;;;;5018352;28;20174;-43
2022/08/08 09:34:33;;;;;;;4.40;2.50;;;22.50;48.40;23.00;101645.00;;;;5008129;28;20171;-43
2022/08/08 09:37:07;;;;;;;5.50;2.77;;;22.50;47.90;23.00;101649.00;;;;5012252;28;20190;-44
2022/08/08 09:40:06;;;;;;;2.43;2.23;;;22.50;47.80;23.00;101650.00;;;;5007201;28;20187;-43
2022/08/08 09:42:41;;;;;;;3.80;2.60;;;22.50;47.40;23.00;101642.00;;;;5025403;28;20226;-44
2022/08/08 09:45:18;;;;;;;5.93;2.70;;;22.60;47.00;23.10;101645.00;;;;5008913;28;20271;-43
2022/08/08 09:47:44;;;;;;;2.50;2.23;;;22.60;46.90;23.10;101641.00;;;;5009771;28;20190;-43
2022/08/08 09:50:20;;;;;;;4.60;2.60;;;22.60;47.20;23.00;101648.00;;;;5007823;28;20242;-43
2022/08/08 09:52:50;;;;;;;4.80;2.70;;;22.70;48.00;22.70;101646.00;;;;5006837;28;20544;-43
2022/08/08 09:55:17;;;;;;;4.10;2.90;;;22.60;48.00;23.10;101637.00;;;;5009925;28;20270;-44
2022/08/08 09:57:48;;;;;;;3.43;2.50;;;22.60;47.60;23.20;101639.00;;;;5004696;28;20187;-44
2022/08/08 10:00:18;;;;;;;4.70;2.60;;;22.70;47.40;23.20;101635.00;;;;5010686;28;20191;-44
2022/08/08 10:02:51;;;;;;;4.87;2.60;;;22.70;47.60;23.20;101638.00;;;;5009338;28;20179;-44
2022/08/08 10:05:17;;;;;;;3.47;2.70;;;22.70;47.00;23.20;101639.00;;;;5009980;28;20677;-44
2022/08/08 10:08:04;;;;;;;2.60;2.40;;;22.70;46.50;23.20;101640.00;;;;4930017;28;20172;-44
2022/08/08 10:10:35;;;;;;;3.37;2.60;;;22.70;46.10;23.20;101642.00;;;;5006809;28;20234;-44
2022/08/08 10:13:20;;;;;;;2.77;2.33;;;22.70;46.80;23.30;101639.00;;;;5010845;28;20651;-44
2022/08/08 10:15:51;;;;;;;2.90;2.60;;;22.70;46.00;23.30;101638.00;;;;5025160;28;20195;-44
2022/08/08 10:18:30;;;;;;;2.70;2.50;;;22.80;45.40;23.30;101629.00;;;;5009018;28;20187;-43
2022/08/08 10:21:18;;;;;;;2.63;2.43;;;22.80;45.90;23.30;101638.00;;;;5006167;28;20176;-44
2022/08/08 10:23:45;;;;;;;5.07;2.50;;;22.80;47.30;23.40;101627.00;;;;5012256;28;20662;-43
2022/08/08 10:26:46;;;;;;;2.77;2.50;;;22.90;46.90;23.40;101633.00;;;;5020975;28;20199;-45
2022/08/08 10:29:12;;;;;;;2.70;2.50;;;22.90;46.60;23.40;101637.00;;;;5018450;28;20184;-44
2022/08/08 10:34:26;;;;;;;2.80;2.50;;;23.00;44.30;23.50;101627.00;;;;5010199;28;20240;-44
2022/08/08 10:36:52;;;;;;;4.07;2.67;;;23.00;44.70;23.50;101628.00;;;;5010025;28;20607;-44
2022/08/08 10:39:26;;;;;;;4.67;2.70;;;23.10;44.80;23.50;101628.00;;;;5012042;28;20171;-44
2022/08/08 10:42:00;;;;;;;2.87;2.43;;;23.10;44.30;23.50;101615.00;;;;5010218;28;20176;-44
2022/08/08 10:44:36;;;;;;;2.83;2.50;;;23.10;45.40;23.60;101616.00;;;;5023731;28;20209;-44
2022/08/08 10:47:13;;;;;;;2.93;2.70;;;23.00;46.60;23.60;101609.00;;;;5025175;28;20191;-43
2022/08/08 10:50:04;;;;;;;3.00;2.70;;;23.10;45.40;23.60;101592.00;;;;5008337;28;20207;-43
2022/08/08 10:52:40;;;;;;;3.70;2.70;;;23.20;45.50;23.70;101618.00;;;;5004079;28;20191;-44
2022/08/08 10:55:14;;;;;;;4.53;2.80;;;23.20;46.20;23.70;101625.00;;;;5016614;28;20171;-43
2022/08/08 10:57:48;;;;;;;4.37;2.80;;;23.30;46.30;23.70;101625.00;;;;5013483;28;20167;-42
2022/08/08 11:00:23;;;;;;;3.50;3.20;;;23.20;46.60;23.70;101625.00;;;;5013567;28;20269;-44
2022/08/08 11:02:49;;;;;;;3.47;2.70;;;23.20;47.20;23.70;101630.00;;;;5016739;28;20190;-43
2022/08/08 11:05:15;;;;;;;3.77;3.47;;;23.30;47.90;23.80;101625.00;;;;5026508;28;22130;-43
2022/08/08 11:07:54;;;;;;;3.43;3.13;;;23.30;48.00;23.80;101620.00;;;;4941893;28;20194;-44
2022/08/08 11:10:21;;;;;;;3.70;3.40;;;23.30;48.00;23.80;101617.00;;;;5013668;28;20236;-44
2022/08/08 11:13:00;;;;;;;3.10;2.83;;;23.40;47.70;23.90;101614.00;;;;5010737;28;20214;-44
2022/08/08 11:15:28;;;;;;;3.53;3.20;;;23.50;46.90;23.90;101625.00;;;;5024598;28;20188;-44
2022/08/08 11:17:54;;;;;;;2.87;2.67;;;23.50;47.60;24.00;101619.00;;;;5016120;28;20581;-44
2022/08/08 11:20:25;;;;;;;3.27;2.80;;;23.50;48.00;24.00;101616.00;;;;5012967;28;20324;-44
2022/08/08 11:22:52;;;;;;;3.70;3.07;;;23.50;48.20;24.00;101620.00;;;;5012936;28;20180;-44
2022/08/08 11:25:24;;;;;;;3.63;2.73;;;23.50;47.20;24.00;101603.00;;;;5011850;28;20180;-43
2022/08/08 11:27:56;;;;;;;4.10;3.20;;;23.50;48.00;24.10;101545.00;;;;5010805;28;20236;-43
2022/08/08 11:30:23;;;;;;;3.33;3.00;;;23.60;48.00;24.10;101597.00;;;;5025149;28;20208;-43